KLMO

Vance Brand Airport

Longmont, Colorado, USA
METAR KLMO 141655Z AUTO 10004KT 10SM CLR 06/M10 A3032 RMK AO2 T00551101
Observed Flight Rules
Dec-14 @ 16:55 UTC (8 minutes ago) Visual Flight Rules
Wind Visibility Clouds
100° at 4 knots 10 miles
  • Clear skies
Temperatures Readings
Current 6°C / 43°F
Dewpoint -10°C / 14°F
Humidity 31%
Altimeter 30.32" Hg
Pressure 1027 hPa
Elevation 1541
METAR KLMO 141655Z AUTO 10004KT 10SM CLR 06/M10 A3032 RMK AO2 T00551101
Observed Flight Rules
Dec-14 @ 16:55 UTC
(8 minutes ago)
VFR
Wind Visibility
100° at 4 knots 10 miles
Clouds
  • Clear skies
Temperature Dewpoint
6°C / 43°F -10°C / 14°F
Humidity Altimeter Pressure
31% 30.32" Hg 1027 hPa